Time;durP1;ratioP1;P1;durP2;ratioP2;P2;SDS_P1;SDS_P2;PMS_P1;PMS_P2;Temp;Humidity;BMP_temperature;BMP_pressure;BME280_temperature;BME280_humidity;BME280_pressure;Samples;Min_cycle;Max_cycle;Signal;HPM_P1;HPM_P2
2023/09/29 00:01:39;;;;;;;;;3.00;2.00;;;;;17.60;70.13;101478.38;4955555;28;8857;-69
2023/09/29 00:04:06;;;;;;;;;2.75;2.75;;;;;17.61;69.92;101481.91;4971327;28;10316;-69
2023/09/29 00:06:33;;;;;;;;;2.75;2.75;;;;;17.60;70.05;101481.09;4968025;28;8867;-70
2023/09/29 00:09:00;;;;;;;;;2.25;1.75;;;;;17.63;69.85;101471.66;4972970;28;9578;-69
2023/09/29 00:11:30;;;;;;;;;1.25;1.25;;;;;17.65;69.90;101470.34;4972882;28;8962;-69
2023/09/29 00:13:58;;;;;;;;;5.50;3.00;;;;;17.65;70.03;101451.28;4972808;28;8950;-69
2023/09/29 00:16:24;;;;;;;;;2.00;1.25;;;;;17.67;69.95;101448.34;4972584;28;8862;-70
2023/09/29 00:18:51;;;;;;;;;3.00;3.00;;;;;17.65;69.71;101424.06;4955572;28;8890;-69
2023/09/29 00:21:18;;;;;;;;;3.00;3.00;;;;;17.65;69.71;101428.69;4953171;28;8873;-70
2023/09/29 00:23:45;;;;;;;;;6.25;3.75;;;;;17.63;69.87;101436.25;4967780;28;8871;-69
2023/09/29 00:26:11;;;;;;;;;2.25;1.75;;;;;17.61;69.52;101424.75;4967553;28;8953;-69
2023/09/29 00:28:39;;;;;;;;;2.00;2.00;;;;;17.58;69.90;101428.75;4971907;28;8861;-70
2023/09/29 00:31:06;;;;;;;;;1.00;1.00;;;;;17.61;69.98;101427.47;4972832;28;9603;-69
2023/09/29 00:33:33;;;;;;;;;3.50;2.25;;;;;17.63;69.74;101420.75;4971824;28;9706;-69
2023/09/29 00:36:00;;;;;;;;;1.75;1.75;;;;;17.65;69.93;101423.22;4953856;28;8868;-69
2023/09/29 00:38:27;;;;;;;;;3.00;1.00;;;;;17.66;70.05;101430.34;4986824;23;8941;-68
2023/09/29 00:40:55;;;;;;;;;3.00;2.00;;;;;17.68;69.69;101425.50;5002161;28;8863;-68
2023/09/29 00:43:22;;;;;;;;;1.00;1.00;;;;;17.68;69.83;101423.63;4966064;28;8860;-69
2023/09/29 00:45:49;;;;;;;;;4.25;3.00;;;;;17.68;69.63;101417.34;4961868;28;8848;-71
2023/09/29 00:48:17;;;;;;;;;2.25;1.25;;;;;17.68;69.77;101410.00;4971419;28;8868;-69
2023/09/29 00:50:45;;;;;;;;;1.00;1.00;;;;;17.70;69.81;101423.38;4971953;28;8879;-69
2023/09/29 00:53:14;;;;;;;;;2.50;2.00;;;;;17.70;69.88;101424.22;4973991;28;8858;-69
2023/09/29 00:55:42;;;;;;;;;0.25;0.25;;;;;17.71;69.84;101420.44;4975448;28;8848;-69
2023/09/29 00:58:12;;;;;;;;;1.00;1.00;;;;;17.73;69.76;101422.94;4979624;28;8864;-69
2023/09/29 01:00:40;;;;;;;;;2.00;1.50;;;;;17.72;69.61;101415.81;4990498;28;8858;-69
2023/09/29 01:03:09;;;;;;;;;2.25;1.50;;;;;17.71;69.77;101416.91;4966721;28;8856;-69
2023/09/29 01:05:47;;;;;;;;;2.50;1.50;;;;;17.75;69.65;101423.59;4957619;28;8942;-69
2023/09/29 01:08:17;;;;;;;;;2.75;2.25;;;;;17.73;69.74;101412.03;4985929;28;8961;-69
2023/09/29 01:10:44;;;;;;;;;1.50;1.50;;;;;17.72;69.75;101411.22;4990840;28;8847;-69
2023/09/29 01:13:12;;;;;;;;;2.00;1.00;;;;;17.73;69.41;101412.03;4974771;28;8904;-69
2023/09/29 01:15:39;;;;;;;;;4.25;3.00;;;;;17.74;69.72;101406.41;4972718;28;8865;-69
2023/09/29 01:18:06;;;;;;;;;2.00;2.00;;;;;17.76;69.30;101404.28;4972091;28;8919;-69
2023/09/29 01:20:34;;;;;;;;;4.50;2.50;;;;;17.77;69.47;101399.66;4975431;28;8834;-69
2023/09/29 01:23:03;;;;;;;;;7.00;3.00;;;;;17.75;69.73;101391.72;4975400;28;8974;-69
2023/09/29 01:25:30;;;;;;;;;4.00;3.00;;;;;17.76;69.46;101379.78;4980023;28;8847;-69
2023/09/29 01:27:57;;;;;;;;;1.75;1.00;;;;;17.75;69.44;101388.19;4991170;28;8846;-69
2023/09/29 01:30:25;;;;;;;;;4.00;2.25;;;;;17.76;69.76;101382.50;4990722;28;9585;-69
2023/09/29 01:32:56;;;;;;;;;4.00;2.25;;;;;17.76;69.42;101371.59;4981123;28;8867;-69
2023/09/29 01:35:23;;;;;;;;;3.50;2.50;;;;;17.77;69.40;101375.16;4991517;28;8835;-69
2023/09/29 01:37:53;;;;;;;;;2.75;2.75;;;;;17.74;69.73;101368.28;4970735;28;8886;-69
2023/09/29 01:40:23;;;;;;;;;3.50;2.00;;;;;17.73;69.82;101371.19;4976412;28;8965;-68
2023/09/29 01:42:51;;;;;;;;;4.25;2.25;;;;;17.70;69.71;101363.47;4987316;28;8843;-69
2023/09/29 01:45:19;;;;;;;;;2.00;2.00;;;;;17.72;69.91;101364.09;4984972;28;8883;-69
2023/09/29 01:47:47;;;;;;;;;5.25;3.00;;;;;17.72;69.68;101367.63;4954314;28;8869;-69
2023/09/29 01:50:15;;;;;;;;;5.25;3.25;;;;;17.71;70.10;101371.44;4954458;28;8869;-69
2023/09/29 01:52:46;;;;;;;;;2.00;2.00;;;;;17.72;70.07;101362.19;4973770;28;8861;-69
2023/09/29 01:55:19;;;;;;;;;2.00;2.00;;;;;17.74;69.94;101357.41;4976906;28;8879;-69
2023/09/29 01:57:47;;;;;;;;;3.00;3.00;;;;;17.75;70.08;101342.72;4986223;28;8847;-68
2023/09/29 02:00:20;;;;;;;;;3.00;3.00;;;;;17.72;70.03;101339.59;4968871;28;8838;-69
2023/09/29 02:02:47;;;;;;;;;4.50;2.50;;;;;17.72;70.39;101354.03;4986612;28;8824;-69
2023/09/29 02:05:18;;;;;;;;;4.00;2.00;;;;;17.74;70.01;101357.41;4956516;28;8837;-69
2023/09/29 02:07:46;;;;;;;;;3.00;3.00;;;;;17.75;69.89;101356.34;4970971;28;9056;-69
2023/09/29 02:10:20;;;;;;;;;2.25;1.25;;;;;17.75;70.15;101350.06;4973543;28;8847;-69
2023/09/29 02:12:55;;;;;;;;;4.25;4.25;;;;;17.77;70.12;101356.09;4973675;28;8843;-69
2023/09/29 02:15:24;;;;;;;;;4.00;3.50;;;;;17.78;70.25;101350.44;4973637;28;8870;-69
2023/09/29 02:17:52;;;;;;;;;5.25;2.25;;;;;17.77;70.00;101347.91;4972992;28;9664;-70
2023/09/29 02:20:21;;;;;;;;;5.00;4.25;;;;;17.75;70.11;101337.28;4971504;28;8963;-69
2023/09/29 02:22:48;;;;;;;;;4.50;4.00;;;;;17.74;70.17;101346.50;4973293;28;8881;-69
2023/09/29 02:25:17;;;;;;;;;4.00;2.00;;;;;17.77;70.13;101337.03;4973842;28;8969;-69
2023/09/29 02:27:44;;;;;;;;;3.00;3.00;;;;;17.80;70.17;101339.28;4973201;28;8890;-69
2023/09/29 02:30:11;;;;;;;;;1.00;1.00;;;;;17.81;70.34;101342.84;4990675;28;8866;-68
2023/09/29 02:32:41;;;;;;;;;3.25;2.00;;;;;17.81;70.33;101351.84;4982835;28;8909;-69
2023/09/29 02:35:09;;;;;;;;;3.25;2.00;;;;;17.83;70.08;101343.47;4969179;28;8900;-69
2023/09/29 02:37:36;;;;;;;;;3.00;3.00;;;;;17.86;70.65;101348.44;4969004;28;8870;-69
2023/09/29 02:40:09;;;;;;;;;4.00;2.25;;;;;17.86;71.49;101329.38;4973189;28;8859;-69
2023/09/29 02:42:36;;;;;;;;;2.75;2.75;;;;;17.78;72.27;101334.09;4989585;28;8851;-69
2023/09/29 02:45:04;;;;;;;;;2.25;2.25;;;;;17.74;73.28;101322.00;4973144;28;8855;-69
2023/09/29 02:47:31;;;;;;;;;3.25;3.00;;;;;17.71;73.61;101324.31;4984134;28;9618;-68
2023/09/29 02:49:58;;;;;;;;;4.25;2.25;;;;;17.67;73.96;101304.88;4986173;28;8855;-68
2023/09/29 02:52:27;;;;;;;;;3.25;3.25;;;;;17.66;74.27;101307.81;4972937;28;8892;-69
2023/09/29 02:54:56;;;;;;;;;4.00;4.00;;;;;17.66;74.22;101302.38;4953965;28;8858;-68
2023/09/29 02:57:23;;;;;;;;;4.25;4.25;;;;;17.64;74.11;101294.44;4957585;28;8845;-69
2023/09/29 02:59:50;;;;;;;;;2.75;1.75;;;;;17.64;74.49;101288.16;4974860;28;8850;-68
2023/09/29 03:02:17;;;;;;;;;2.50;2.50;;;;;17.62;74.60;101284.84;4962092;28;8862;-69
2023/09/29 03:04:46;;;;;;;;;2.50;2.50;;;;;17.61;74.92;101291.34;4965540;28;8875;-69
2023/09/29 03:07:13;;;;;;;;;3.75;3.50;;;;;17.62;74.95;101295.72;4976696;28;8843;-68
2023/09/29 03:09:39;;;;;;;;;4.00;3.75;;;;;17.60;74.76;101293.25;4968454;28;8877;-69
2023/09/29 03:12:07;;;;;;;;;4.00;2.25;;;;;17.57;75.24;101285.53;4971632;28;8877;-69
2023/09/29 03:14:34;;;;;;;;;3.75;3.75;;;;;17.56;75.32;101283.88;4995632;28;9532;-69
2023/09/29 03:17:00;;;;;;;;;4.25;4.00;;;;;17.58;75.16;101289.06;4991215;28;8850;-69
2023/09/29 03:19:27;;;;;;;;;3.50;3.00;;;;;17.58;75.05;101283.63;4976906;28;8850;-69
2023/09/29 03:21:54;;;;;;;;;4.00;3.00;;;;;17.55;75.20;101279.50;4994179;28;8836;-68
2023/09/29 03:24:22;;;;;;;;;7.00;4.00;;;;;17.51;75.29;101279.13;4976771;28;8849;-68
2023/09/29 03:26:49;;;;;;;;;4.00;3.00;;;;;17.50;74.95;101274.75;4974977;28;8977;-68
2023/09/29 03:29:17;;;;;;;;;4.00;3.00;;;;;17.54;75.02;101269.66;4990891;28;8851;-68
2023/09/29 03:31:45;;;;;;;;;3.25;2.75;;;;;17.56;75.00;101256.66;4999240;28;8864;-68
2023/09/29 03:34:11;;;;;;;;;3.00;3.00;;;;;17.57;74.79;101254.75;4994096;28;8953;-68
2023/09/29 03:36:38;;;;;;;;;2.75;2.75;;;;;17.59;74.99;101256.19;4968659;28;8853;-69
2023/09/29 03:39:06;;;;;;;;;4.00;3.50;;;;;17.55;75.06;101257.72;4993490;28;8851;-69
2023/09/29 03:41:33;;;;;;;;;3.00;3.00;;;;;17.55;75.03;101249.56;4976358;28;8855;-68
2023/09/29 03:44:00;;;;;;;;;3.00;3.00;;;;;17.60;74.97;101243.41;4957334;28;8864;-68
2023/09/29 03:46:29;;;;;;;;;3.00;3.00;;;;;17.62;75.13;101235.81;4977589;28;9753;-68
2023/09/29 03:48:55;;;;;;;;;3.75;3.75;;;;;17.62;75.18;101231.22;4978236;28;8906;-68
2023/09/29 03:51:23;;;;;;;;;3.50;3.25;;;;;17.63;75.16;101227.44;4984025;28;8866;-69
2023/09/29 03:53:56;;;;;;;;;3.75;3.00;;;;;17.63;75.51;101218.47;4993280;28;8913;-68
2023/09/29 03:56:23;;;;;;;;;4.00;3.75;;;;;17.64;75.66;101218.22;4993278;28;8969;-68
2023/09/29 03:58:50;;;;;;;;;4.00;2.50;;;;;17.64;75.64;101215.50;4992147;28;8891;-69
2023/09/29 04:01:17;;;;;;;;;2.00;2.00;;;;;17.66;75.70;101221.56;4978660;28;8843;-69
2023/09/29 04:03:44;;;;;;;;;1.75;1.75;;;;;17.68;75.69;101216.69;4990849;28;8927;-68
2023/09/29 04:06:11;;;;;;;;;6.00;3.50;;;;;17.68;75.65;101219.41;4977182;28;8927;-68
2023/09/29 04:08:38;;;;;;;;;6.50;5.00;;;;;17.69;75.86;101217.50;4988956;28;8866;-68
2023/09/29 04:11:05;;;;;;;;;3.75;3.75;;;;;17.68;75.93;101216.69;5004583;28;8856;-68
2023/09/29 04:13:33;;;;;;;;;3.00;2.00;;;;;17.67;76.16;101208.75;5012588;28;8856;-69
2023/09/29 04:16:07;;;;;;;;;3.00;3.00;;;;;17.65;76.54;101224.47;4984322;28;8856;-68
2023/09/29 04:18:35;;;;;;;;;1.75;1.25;;;;;17.65;76.52;101227.22;4987847;28;8852;-68
2023/09/29 04:21:02;;;;;;;;;2.75;2.75;;;;;17.65;76.21;101217.16;4992787;28;8869;-68
2023/09/29 04:23:29;;;;;;;;;3.75;3.00;;;;;17.64;76.64;101207.31;4987722;28;8841;-68
2023/09/29 04:25:56;;;;;;;;;4.50;3.75;;;;;17.63;76.55;101210.28;4991967;28;9597;-68
2023/09/29 04:28:22;;;;;;;;;4.50;3.25;;;;;17.62;76.63;101205.88;4981247;28;8862;-68
2023/09/29 04:30:49;;;;;;;;;4.25;4.00;;;;;17.66;76.35;101197.03;4966611;28;8984;-68
2023/09/29 04:33:15;;;;;;;;;5.75;4.00;;;;;17.67;76.60;101197.88;4989527;28;8875;-68
2023/09/29 04:35:42;;;;;;;;;3.50;2.50;;;;;17.70;76.24;101202.84;4956227;28;8952;-68
2023/09/29 04:38:10;;;;;;;;;5.25;4.75;;;;;17.72;76.24;101193.38;4955966;28;9024;-69
2023/09/29 04:40:37;;;;;;;;;4.75;3.50;;;;;17.73;76.35;101205.09;4992423;28;8838;-68
2023/09/29 04:43:05;;;;;;;;;4.00;3.75;;;;;17.76;76.29;101202.78;4992688;28;8893;-68
2023/09/29 04:45:33;;;;;;;;;3.25;2.25;;;;;17.78;75.87;101195.22;4978369;28;8875;-69
2023/09/29 04:48:01;;;;;;;;;4.00;3.00;;;;;17.79;76.03;101191.41;4954757;28;8991;-68
2023/09/29 04:50:29;;;;;;;;;1.00;1.00;;;;;17.83;75.87;101193.69;4990011;28;8973;-68
2023/09/29 04:52:56;;;;;;;;;3.50;2.50;;;;;17.79;76.10;101190.59;4991269;28;8854;-68
2023/09/29 04:55:22;;;;;;;;;3.25;3.25;;;;;17.78;76.07;101183.47;4992530;28;8851;-69
2023/09/29 04:57:52;;;;;;;;;3.50;2.50;;;;;17.76;75.96;101191.88;4974683;28;8877;-69
2023/09/29 05:00:18;;;;;;;;;2.75;2.75;;;;;17.79;76.45;101201.50;4982217;28;8942;-69
2023/09/29 05:02:45;;;;;;;;;4.75;4.00;;;;;17.82;75.93;101198.28;4989059;28;8914;-68
2023/09/29 05:05:12;;;;;;;;;3.00;3.00;;;;;17.85;76.34;101202.44;4973645;28;8847;-68
2023/09/29 05:07:39;;;;;;;;;3.00;3.00;;;;;17.84;76.34;101201.59;4973146;28;8985;-69
2023/09/29 05:10:06;;;;;;;;;3.50;2.00;;;;;17.86;76.46;101198.63;4989409;28;8917;-68
2023/09/29 05:12:33;;;;;;;;;4.00;3.25;;;;;17.84;76.44;101198.06;4989288;28;8875;-68
2023/09/29 05:14:59;;;;;;;;;1.50;1.00;;;;;17.85;76.68;101192.38;4991792;28;8845;-69
2023/09/29 05:17:26;;;;;;;;;4.50;2.00;;;;;17.87;76.53;101200.31;4985357;28;8880;-69
2023/09/29 05:20:12;;;;;;;;;3.50;3.00;;;;;17.83;76.44;101204.56;4980355;28;8988;-68
2023/09/29 05:22:39;;;;;;;;;3.50;3.50;;;;;17.82;76.57;101200.16;4990237;28;11095;-69
2023/09/29 05:25:06;;;;;;;;;3.75;3.75;;;;;17.83;76.42;101199.13;4982586;28;8871;-69
2023/09/29 05:27:32;;;;;;;;;3.50;3.25;;;;;17.85;76.75;101202.44;4944314;28;8889;-69
2023/09/29 05:29:59;;;;;;;;;3.25;3.00;;;;;17.85;76.85;101205.97;4988869;28;8870;-68
2023/09/29 05:32:25;;;;;;;;;2.00;2.00;;;;;17.89;76.43;101206.34;4985044;28;8866;-69
2023/09/29 05:34:52;;;;;;;;;3.75;3.50;;;;;17.89;76.59;101201.72;4974133;28;8838;-68
2023/09/29 05:37:18;;;;;;;;;5.25;3.25;;;;;17.91;76.73;101207.78;4989397;28;8930;-69
2023/09/29 05:39:45;;;;;;;;;2.25;2.25;;;;;17.89;76.50;101200.91;4991505;28;9581;-68
2023/09/29 05:42:12;;;;;;;;;4.00;4.00;;;;;17.91;76.80;101209.69;4974279;28;8859;-68
2023/09/29 05:44:39;;;;;;;;;4.25;4.00;;;;;17.89;76.66;101206.34;4991401;28;8844;-69
2023/09/29 05:47:05;;;;;;;;;4.00;3.00;;;;;17.87;76.87;101208.50;4989320;28;8854;-69
2023/09/29 05:49:32;;;;;;;;;3.50;3.50;;;;;17.89;76.85;101212.63;4990929;28;8890;-69
2023/09/29 05:51:59;;;;;;;;;4.50;3.00;;;;;17.90;76.86;101197.94;4990481;28;8843;-68
2023/09/29 05:54:25;;;;;;;;;2.75;2.75;;;;;17.88;76.94;101199.25;4990983;28;8834;-69
2023/09/29 05:56:52;;;;;;;;;3.25;2.75;;;;;17.87;77.06;101203.06;4973731;28;8855;-69
2023/09/29 05:59:18;;;;;;;;;3.50;3.00;;;;;17.89;77.29;101206.34;4982155;28;8861;-68
2023/09/29 06:01:46;;;;;;;;;3.00;3.00;;;;;17.88;77.53;101208.25;4988593;28;8835;-68
2023/09/29 06:04:12;;;;;;;;;2.50;2.00;;;;;17.89;77.67;101195.47;4989308;28;8878;-69
2023/09/29 06:06:39;;;;;;;;;4.00;3.50;;;;;17.88;77.29;101201.97;4988707;28;8870;-68
2023/09/29 06:09:06;;;;;;;;;5.50;3.00;;;;;17.88;77.48;101199.25;4985126;28;9083;-69
2023/09/29 06:11:33;;;;;;;;;3.50;3.00;;;;;17.90;77.39;101206.09;4971211;28;9720;-69
2023/09/29 06:13:59;;;;;;;;;3.25;3.25;;;;;17.90;77.72;101205.28;4979417;28;8854;-68
2023/09/29 06:16:26;;;;;;;;;3.00;2.25;;;;;17.90;77.58;101203.38;4990344;28;8851;-69
2023/09/29 06:18:52;;;;;;;;;9.00;8.50;;;;;17.86;77.66;101206.81;4984718;28;8914;-68
2023/09/29 06:21:19;;;;;;;;;11.25;10.75;;;;;17.89;78.02;101206.34;4972873;28;9001;-68
2023/09/29 06:23:45;;;;;;;;;11.00;9.25;;;;;17.88;78.06;101210.97;4984037;28;8924;-67
2023/09/29 06:26:12;;;;;;;;;7.25;7.25;;;;;17.89;78.26;101218.06;4985820;28;8847;-68
2023/09/29 06:28:39;;;;;;;;;5.00;5.00;;;;;17.90;77.96;101213.44;4973280;28;8847;-68
2023/09/29 06:31:06;;;;;;;;;3.00;3.00;;;;;17.90;78.11;101206.09;4972512;28;8831;-68
2023/09/29 06:33:32;;;;;;;;;5.00;4.25;;;;;17.90;78.33;101210.72;4968124;28;8918;-67
2023/09/29 06:35:59;;;;;;;;;4.75;4.00;;;;;17.90;78.26;101217.00;4990679;28;8969;-68
2023/09/29 06:41:02;;;;;;;;;4.00;3.00;;;;;17.92;78.54;101216.78;4968519;28;8931;-68
2023/09/29 06:43:29;;;;;;;;;4.75;3.00;;;;;17.92;78.51;101222.22;4964554;28;8846;-67
2023/09/29 06:45:55;;;;;;;;;5.00;4.25;;;;;17.92;78.65;101219.50;4970517;28;8882;-69
2023/09/29 06:48:28;;;;;;;;;2.50;2.25;;;;;17.92;78.86;101228.50;4967009;28;8853;-67
2023/09/29 06:50:59;;;;;;;;;3.00;3.00;;;;;17.92;78.80;101220.34;4953141;28;9070;-68
2023/09/29 06:53:28;;;;;;;;;2.00;1.75;;;;;17.93;79.15;101229.34;4951220;28;8860;-68
2023/09/29 06:55:55;;;;;;;;;2.50;2.50;;;;;17.94;79.23;101228.25;4931603;29;8990;-68
2023/09/29 06:58:21;;;;;;;;;3.50;3.50;;;;;17.94;79.41;101229.09;4941404;29;8836;-66
2023/09/29 07:00:49;;;;;;;;;2.25;2.00;;;;;17.97;79.47;101227.81;4934006;28;8852;-68
2023/09/29 07:03:16;;;;;;;;;3.00;3.00;;;;;17.99;79.39;101231.97;4949643;28;8928;-68
2023/09/29 07:05:42;;;;;;;;;2.00;2.00;;;;;18.02;79.39;101227.91;4941877;29;9670;-68
2023/09/29 07:08:09;;;;;;;;;4.00;4.00;;;;;18.03;79.39;101224.97;4942236;28;8892;-67
2023/09/29 07:10:35;;;;;;;;;6.00;3.00;;;;;18.03;79.17;101224.16;4948618;29;8947;-68
2023/09/29 07:13:02;;;;;;;;;2.00;2.00;;;;;18.04;79.64;101218.47;4931884;29;8867;-67
2023/09/29 07:15:28;;;;;;;;;4.75;3.75;;;;;18.04;79.71;101225.81;4947285;28;8989;-69
2023/09/29 07:17:55;;;;;;;;;4.00;4.00;;;;;18.08;79.73;101223.44;4947860;28;8859;-67
2023/09/29 07:20:22;;;;;;;;;2.25;2.25;;;;;18.11;79.83;101231.13;4956599;28;8854;-68
2023/09/29 07:22:51;;;;;;;;;3.25;3.25;;;;;18.13;79.94;101235.28;4943953;29;9003;-68
2023/09/29 07:25:18;;;;;;;;;3.00;3.00;;;;;18.16;79.70;101225.81;4948257;29;8843;-67
2023/09/29 07:27:45;;;;;;;;;3.25;3.00;;;;;18.21;79.96;101237.66;4950675;28;8881;-69
2023/09/29 07:30:12;;;;;;;;;5.00;4.50;;;;;18.22;79.70;101238.50;4949681;28;8863;-68
2023/09/29 07:32:41;;;;;;;;;4.00;4.00;;;;;18.18;80.21;101235.41;4957636;28;8836;-68
2023/09/29 07:35:08;;;;;;;;;3.00;2.00;;;;;18.20;79.99;101236.03;4952508;28;9544;-68
2023/09/29 07:37:34;;;;;;;;;5.25;3.75;;;;;18.24;80.34;101241.84;4941645;28;8846;-68
2023/09/29 07:40:01;;;;;;;;;6.00;6.00;;;;;18.17;80.74;101247.38;4952091;28;8847;-68
2023/09/29 07:42:28;;;;;;;;;3.50;3.25;;;;;18.20;81.00;101254.25;4948665;28;8877;-68
2023/09/29 07:44:54;;;;;;;;;2.75;2.75;;;;;18.26;80.88;101243.22;4953084;28;8886;-68
2023/09/29 07:47:21;;;;;;;;;5.75;3.25;;;;;18.32;81.13;101248.84;4937146;28;8836;-67
2023/09/29 07:49:47;;;;;;;;;3.75;3.75;;;;;18.34;81.02;101255.69;4935458;28;8844;-68
2023/09/29 07:52:14;;;;;;;;;3.75;3.75;;;;;18.35;81.24;101259.25;4948258;28;8847;-69
2023/09/29 07:54:40;;;;;;;;;4.50;4.25;;;;;18.36;81.15;101256.31;4953392;28;8850;-68
2023/09/29 07:57:07;;;;;;;;;10.00;9.25;;;;;18.34;81.72;101254.88;4947959;28;8834;-67
2023/09/29 07:59:33;;;;;;;;;5.00;5.00;;;;;18.38;82.09;101259.59;4973512;28;8849;-68
2023/09/29 08:02:00;;;;;;;;;3.50;3.00;;;;;18.42;82.09;101254.50;4956313;28;8875;-68
2023/09/29 08:04:26;;;;;;;;;4.75;3.75;;;;;18.43;82.15;101261.63;4967096;28;8852;-67
2023/09/29 08:06:53;;;;;;;;;5.00;5.00;;;;;18.41;83.15;101259.13;4952328;28;8851;-68
2023/09/29 08:09:19;;;;;;;;;4.25;4.25;;;;;18.40;83.56;101259.38;4953974;28;9594;-68
2023/09/29 08:11:46;;;;;;;;;5.00;4.00;;;;;18.38;84.03;101258.78;4952951;28;8883;-68
2023/09/29 08:14:13;;;;;;;;;2.50;2.50;;;;;18.46;84.29;101258.44;4946719;28;8935;-67
2023/09/29 08:16:40;;;;;;;;;4.00;4.00;;;;;18.48;84.02;101265.31;4946847;29;8870;-68
2023/09/29 08:19:06;;;;;;;;;5.50;5.50;;;;;18.48;84.63;101262.59;4941557;28;9602;-68
2023/09/29 08:21:33;;;;;;;;;4.25;3.25;;;;;18.52;84.93;101258.31;4942026;28;9002;-69
2023/09/29 08:24:02;;;;;;;;;2.00;2.00;;;;;18.59;84.60;101271.00;4956215;28;8828;-67
2023/09/29 08:26:30;;;;;;;;;5.00;4.00;;;;;18.57;84.66;101265.78;4965846;28;8916;-67
2023/09/29 08:28:59;;;;;;;;;5.25;3.00;;;;;18.57;85.13;101268.50;4953832;28;8844;-68
2023/09/29 08:31:26;;;;;;;;;4.25;4.00;;;;;18.60;85.00;101272.66;4954883;28;8895;-67
2023/09/29 08:33:52;;;;;;;;;5.25;5.00;;;;;18.61;85.34;101272.44;4955872;28;8838;-67
2023/09/29 08:36:19;;;;;;;;;4.00;3.00;;;;;18.64;85.27;101282.88;4957178;28;8848;-68
2023/09/29 08:38:46;;;;;;;;;5.50;3.25;;;;;18.66;85.19;101278.00;4959897;28;8850;-68
2023/09/29 08:41:15;;;;;;;;;3.25;1.25;;;;;18.71;85.43;101280.03;4962810;28;8860;-69
2023/09/29 08:43:43;;;;;;;;;3.50;3.50;;;;;18.73;85.25;101275.19;4950210;28;8909;-67
2023/09/29 08:46:25;;;;;;;;;3.75;3.75;;;;;18.70;85.54;101281.94;4946475;28;8850;-68
2023/09/29 08:48:54;;;;;;;;;2.75;2.00;;;;;18.76;85.66;101282.91;4931670;28;8932;-68
2023/09/29 08:51:22;;;;;;;;;3.75;3.75;;;;;18.82;85.88;101284.66;4956154;28;8845;-68
2023/09/29 08:53:52;;;;;;;;;5.25;4.25;;;;;18.83;85.78;101289.03;4954744;28;9044;-67
2023/09/29 08:56:20;;;;;;;;;2.00;2.00;;;;;18.87;85.85;101286.66;4951860;28;8939;-68
2023/09/29 08:58:46;;;;;;;;;6.00;4.00;;;;;18.88;85.91;101280.13;4951489;28;8851;-68
2023/09/29 09:01:13;;;;;;;;;3.25;3.00;;;;;18.87;85.86;101292.13;4953372;28;8863;-67
2023/09/29 09:03:40;;;;;;;;;2.75;2.75;;;;;18.90;86.43;101291.66;4936211;28;8848;-68
2023/09/29 09:06:25;;;;;;;;;3.25;3.00;;;;;18.89;86.47;101287.28;4952847;28;8880;-68
2023/09/29 09:08:53;;;;;;;;;5.50;4.50;;;;;18.93;86.63;101297.47;4953251;28;8979;-68
2023/09/29 09:11:19;;;;;;;;;4.50;4.50;;;;;19.00;86.34;101300.09;4951740;28;8868;-68
2023/09/29 09:14:03;;;;;;;;;4.25;2.50;;;;;19.07;85.96;101294.47;4951336;28;9555;-68
2023/09/29 09:16:34;;;;;;;;;3.25;3.00;;;;;19.03;86.44;101294.13;4952590;28;8872;-68
2023/09/29 09:19:14;;;;;;;;;5.00;5.00;;;;;19.02;86.40;101300.66;4952711;28;8910;-68
2023/09/29 09:21:43;;;;;;;;;5.75;3.00;;;;;19.06;86.57;101293.66;4951419;28;8856;-68
2023/09/29 09:24:23;;;;;;;;;3.50;3.50;;;;;19.12;86.27;101292.72;4952003;28;8840;-68
2023/09/29 09:26:51;;;;;;;;;3.00;3.00;;;;;19.15;85.97;101280.47;4951612;28;8859;-68
2023/09/29 09:29:19;;;;;;;;;3.00;3.00;;;;;19.19;86.04;101287.94;4952778;28;8844;-68
2023/09/29 09:31:53;;;;;;;;;3.75;3.75;;;;;19.21;86.03;101291.25;4951716;28;8898;-67
2023/09/29 09:34:31;;;;;;;;;4.00;4.00;;;;;19.17;86.16;101298.25;4935635;28;8836;-68
2023/09/29 09:36:58;;;;;;;;;3.50;3.00;;;;;19.19;86.04;101301.56;4951618;28;8856;-68
2023/09/29 09:39:27;;;;;;;;;3.75;3.00;;;;;19.20;86.13;101295.06;4951848;28;8867;-68
2023/09/29 09:41:56;;;;;;;;;3.25;3.25;;;;;19.23;86.15;101300.03;4945018;28;8886;-69
2023/09/29 09:44:25;;;;;;;;;3.00;3.00;;;;;19.27;85.94;101303.94;4950730;28;8836;-69
2023/09/29 09:46:57;;;;;;;;;4.50;4.50;;;;;19.31;85.65;101298.00;4950575;28;8845;-68
2023/09/29 09:49:28;;;;;;;;;5.50;5.50;;;;;19.34;85.53;101311.16;4951981;28;8938;-68
2023/09/29 09:52:03;;;;;;;;;3.25;3.00;;;;;19.31;85.48;101317.09;4933873;28;8890;-69
2023/09/29 09:54:35;;;;;;;;;3.75;3.75;;;;;19.37;85.52;101316.16;4949458;28;8860;-68
2023/09/29 09:57:08;;;;;;;;;3.75;3.50;;;;;19.34;85.47;101312.00;4949262;28;9559;-69
2023/09/29 09:59:36;;;;;;;;;4.50;4.50;;;;;19.36;85.36;101323.50;4951894;28;9673;-68
2023/09/29 10:02:06;;;;;;;;;6.00;6.00;;;;;19.22;86.26;101322.94;4952007;28;8865;-68
2023/09/29 10:04:36;;;;;;;;;8.00;5.75;;;;;19.24;86.38;101330.88;4951886;28;8865;-68
2023/09/29 10:07:04;;;;;;;;;5.50;5.50;;;;;19.25;86.95;101343.47;4933842;28;8943;-69
2023/09/29 10:09:45;;;;;;;;;4.00;3.25;;;;;19.27;87.11;101335.84;4950728;28;8919;-68
2023/09/29 10:12:30;;;;;;;;;6.75;6.75;;;;;19.24;87.58;101334.47;4929999;28;8879;-69
2023/09/29 10:14:59;;;;;;;;;4.75;3.25;;;;;19.20;88.58;101346.06;4929821;28;8921;-67
2023/09/29 10:17:39;;;;;;;;;4.75;4.75;;;;;19.15;88.46;101346.78;4951408;28;8856;-67
2023/09/29 10:20:19;;;;;;;;;3.25;3.25;;;;;19.12;89.05;101344.56;4950091;28;9555;-68
2023/09/29 10:22:46;;;;;;;;;4.00;4.00;;;;;19.10;90.11;101337.66;4933991;28;8840;-67
2023/09/29 10:25:20;;;;;;;;;5.50;5.50;;;;;19.09;90.55;101346.94;4951464;28;8911;-69
2023/09/29 10:27:50;;;;;;;;;4.00;4.00;;;;;19.06;90.77;101347.41;4950392;28;8876;-67
2023/09/29 10:30:16;;;;;;;;;4.50;4.25;;;;;19.04;91.15;101353.09;4951732;28;8915;-68
2023/09/29 10:32:45;;;;;;;;;5.50;5.50;;;;;19.02;91.72;101363.41;4952062;28;8872;-66
2023/09/29 10:35:19;;;;;;;;;2.00;2.00;;;;;19.05;91.75;101357.50;4950557;28;8852;-66
2023/09/29 10:37:54;;;;;;;;;3.00;3.00;;;;;19.05;91.73;101371.13;4948495;29;9250;-66
2023/09/29 10:40:22;;;;;;;;;3.00;3.00;;;;;19.05;92.00;101362.13;4932673;29;8858;-67
2023/09/29 10:42:54;;;;;;;;;3.75;3.00;;;;;18.99;92.73;101366.59;4944326;28;8850;-67
2023/09/29 10:45:36;;;;;;;;;3.00;3.00;;;;;19.00;92.79;101381.94;4928820;29;8836;-68
2023/09/29 10:48:07;;;;;;;;;3.50;3.50;;;;;19.00;93.25;101384.66;4934144;29;9682;-67
2023/09/29 10:50:49;;;;;;;;;2.25;2.25;;;;;18.98;93.03;101382.16;4934465;28;8876;-66
2023/09/29 10:53:18;;;;;;;;;3.00;3.00;;;;;18.99;93.47;101397.44;4933812;28;9523;-67
2023/09/29 10:55:47;;;;;;;;;4.75;4.75;;;;;18.99;93.42;101408.38;4936248;29;9567;-68
2023/09/29 10:58:18;;;;;;;;;3.75;3.75;;;;;18.95;93.05;101417.25;4941003;29;8832;-67
2023/09/29 11:00:48;;;;;;;;;1.00;1.00;;;;;18.83;92.63;101427.31;4950369;29;8946;-68
2023/09/29 11:03:18;;;;;;;;;5.75;2.25;;;;;18.68;92.80;101433.22;4948500;28;8862;-68
2023/09/29 11:06:08;;;;;;;;;3.00;3.00;;;;;18.53;92.46;101439.91;4950155;29;8862;-68
2023/09/29 11:08:42;;;;;;;;;2.75;2.75;;;;;18.51;93.27;101442.06;4949014;29;8852;-67
2023/09/29 11:11:09;;;;;;;;;3.75;3.75;;;;;18.41;92.52;101465.47;4933905;29;8867;-68
2023/09/29 11:13:38;;;;;;;;;2.00;1.00;;;;;18.31;93.09;101462.47;4950534;28;8824;-67
2023/09/29 11:16:16;;;;;;;;;2.00;2.00;;;;;18.28;93.06;101459.16;4930786;28;8847;-67
2023/09/29 11:18:46;;;;;;;;;1.00;1.00;;;;;18.22;93.14;101465.50;4952414;28;8848;-68
2023/09/29 11:21:13;;;;;;;;;1.00;0.75;;;;;18.22;92.88;101473.69;4954542;28;8966;-66
2023/09/29 11:23:43;;;;;;;;;1.00;1.00;;;;;18.24;92.70;101484.38;4954765;28;9555;-67
2023/09/29 11:26:12;;;;;;;;;1.00;1.00;;;;;18.08;92.19;101494.00;4953843;28;9574;-67
2023/09/29 11:28:47;;;;;;;;;0.25;0.25;;;;;18.03;92.60;101502.84;4953467;28;8961;-66
2023/09/29 11:31:17;;;;;;;;;1.00;1.00;;;;;18.01;92.58;101504.97;4951908;28;8874;-68
2023/09/29 11:33:45;;;;;;;;;0.00;0.00;;;;;18.06;92.88;101514.34;4937176;28;8881;-67
2023/09/29 11:36:17;;;;;;;;;0.00;0.00;;;;;18.10;92.49;101516.38;4949856;28;8971;-67
2023/09/29 11:38:45;;;;;;;;;1.00;1.00;;;;;18.12;92.01;101517.00;4936122;28;9587;-67
2023/09/29 11:41:13;;;;;;;;;0.00;0.00;;;;;18.15;91.83;101521.16;4953565;28;8868;-66
2023/09/29 11:43:40;;;;;;;;;1.50;1.50;;;;;18.14;91.70;101525.75;4936574;28;8840;-66